createdAt,value
2023-04-21T00:01:15.143Z,9.00
2023-04-21T00:05:25.167Z,9.00
2023-04-21T00:09:34.005Z,9.00
2023-04-21T00:13:42.729Z,9.10
2023-04-21T00:17:51.839Z,9.20
2023-04-21T00:22:01.160Z,9.20
2023-04-21T00:26:09.875Z,9.20
2023-04-21T00:30:18.925Z,9.20
2023-04-21T00:34:27.641Z,9.20
2023-04-21T00:38:36.556Z,9.10
2023-04-21T00:42:45.108Z,9.10
2023-04-21T00:46:53.873Z,9.10
2023-04-21T00:51:05.679Z,9.10
2023-04-21T00:55:15.039Z,9.10
2023-04-21T00:59:23.686Z,9.10
2023-04-21T01:03:32.963Z,9.00
2023-04-21T01:07:43.867Z,9.00
2023-04-21T01:12:32.693Z,9.00
2023-04-21T01:16:41.468Z,9.10
2023-04-21T01:20:51.078Z,9.00
2023-04-21T01:24:59.701Z,9.00
2023-04-21T01:29:08.326Z,9.00
2023-04-21T01:33:17.916Z,9.00
2023-04-21T01:37:51.398Z,9.10
2023-04-21T01:42:01.762Z,9.00
2023-04-21T01:46:10.738Z,9.10
2023-04-21T01:50:19.500Z,9.00
2023-04-21T01:54:28.268Z,9.00
2023-04-21T01:58:36.904Z,9.10
2023-04-21T02:02:45.670Z,9.00
2023-04-21T02:06:54.290Z,9.00
2023-04-21T02:11:03.368Z,8.90
2023-04-21T02:15:12.646Z,8.90
2023-04-21T02:19:21.461Z,8.90
2023-04-21T02:23:30.303Z,9.00
2023-04-21T02:27:38.937Z,9.00
2023-04-21T02:31:58.907Z,9.00
2023-04-21T02:35:57.825Z,9.00
2023-04-21T02:40:07.654Z,9.00
2023-04-21T02:44:18.282Z,9.00
2023-04-21T02:48:26.898Z,9.00
2023-04-21T02:52:38.433Z,9.10
2023-04-21T02:56:47.213Z,9.10
2023-04-21T03:00:57.203Z,9.10
2023-04-21T03:05:06.437Z,9.10
2023-04-21T03:09:15.151Z,9.20
2023-04-21T03:13:25.803Z,9.20
2023-04-21T03:17:34.591Z,9.20
2023-04-21T03:21:43.285Z,9.30
2023-04-21T03:25:51.915Z,9.10
2023-04-21T03:30:00.658Z,9.10
2023-04-21T03:34:09.296Z,9.10
2023-04-21T03:38:17.913Z,9.10
2023-04-21T03:42:26.771Z,9.10
2023-04-21T03:46:35.481Z,9.10
2023-04-21T03:50:44.073Z,9.10
2023-04-21T03:54:52.922Z,9.10
2023-04-21T03:59:01.578Z,9.10
2023-04-21T04:03:10.494Z,9.00
2023-04-21T04:07:19.289Z,9.00
2023-04-21T04:11:27.898Z,9.00
2023-04-21T04:15:36.517Z,8.90
2023-04-21T04:19:45.145Z,8.90
2023-04-21T04:23:53.842Z,8.90
2023-04-21T04:28:02.880Z,8.90
2023-04-21T04:32:11.612Z,8.90
2023-04-21T04:36:20.241Z,8.90
2023-04-21T04:40:29.786Z,8.90
2023-04-21T04:44:38.419Z,8.90
2023-04-21T04:48:49.891Z,8.90
2023-04-21T04:52:58.515Z,8.80
2023-04-21T04:57:07.172Z,8.80
2023-04-21T05:01:17.441Z,8.80
2023-04-21T05:05:26.407Z,8.80
2023-04-21T05:09:35.876Z,8.90
2023-04-21T05:13:44.558Z,9.00
2023-04-21T05:17:53.241Z,9.00
2023-04-21T05:22:01.811Z,9.00
2023-04-21T05:26:10.409Z,9.00
2023-04-21T05:30:19.024Z,9.10
2023-04-21T05:34:27.626Z,9.10
2023-04-21T05:38:37.350Z,9.10
2023-04-21T05:42:45.987Z,9.10
2023-04-21T05:46:54.620Z,9.10
2023-04-21T05:51:11.674Z,9.20
2023-04-21T05:55:20.452Z,9.20
2023-04-21T05:59:29.097Z,9.30
2023-04-21T06:03:37.995Z,9.30
2023-04-21T06:07:47.174Z,9.50
2023-04-21T06:11:57.030Z,9.50
2023-04-21T06:16:06.349Z,9.60
2023-04-21T06:20:15.207Z,9.60
2023-04-21T06:24:25.803Z,9.70
2023-04-21T06:28:36.142Z,9.70
2023-04-21T06:32:48.689Z,9.80
2023-04-21T06:36:57.458Z,9.90
2023-04-21T06:41:06.646Z,9.80
2023-04-21T06:45:16.809Z,9.90
2023-04-21T06:49:25.451Z,9.90
2023-04-21T06:53:34.169Z,10.00
2023-04-21T06:57:43.003Z,10.00
2023-04-21T07:01:52.464Z,10.10
2023-04-21T07:06:01.223Z,10.20
2023-04-21T07:10:10.454Z,10.30
2023-04-21T07:14:19.065Z,10.30
2023-04-21T07:18:27.948Z,10.40
2023-04-21T07:22:36.919Z,10.40
2023-04-21T07:26:45.526Z,10.60
2023-04-21T07:30:54.148Z,10.60
2023-04-21T07:35:03.449Z,10.70
2023-04-21T07:39:12.177Z,10.80
2023-04-21T07:43:20.879Z,10.80
2023-04-21T07:47:30.608Z,10.90
2023-04-21T07:51:40.265Z,11.00
2023-04-21T07:55:48.928Z,11.20
2023-04-21T07:59:57.533Z,11.20
2023-04-21T08:04:06.816Z,11.40
2023-04-21T08:08:17.159Z,11.50
2023-04-21T08:12:25.896Z,11.50
2023-04-21T08:16:34.649Z,11.60
2023-04-21T08:20:43.278Z,11.60
2023-04-21T08:24:51.901Z,11.60
2023-04-21T08:29:03.517Z,11.70
2023-04-21T08:33:13.061Z,11.80
2023-04-21T08:37:23.071Z,11.90
2023-04-21T08:41:31.726Z,11.90
2023-04-21T08:45:41.851Z,12.00
2023-04-21T08:49:52.223Z,12.10
2023-04-21T08:54:00.891Z,12.20
2023-04-21T08:58:09.929Z,12.40
2023-04-21T09:02:20.425Z,12.50
2023-04-21T09:06:32.333Z,12.80
2023-04-21T09:10:47.209Z,13.10
2023-04-21T09:14:57.754Z,13.20
2023-04-21T09:19:09.457Z,13.20
2023-04-21T09:23:18.904Z,13.30
2023-04-21T09:27:27.575Z,13.40
2023-04-21T09:31:37.341Z,13.50
2023-04-21T09:35:46.122Z,13.50
2023-04-21T09:40:04.260Z,13.40
2023-04-21T09:44:05.222Z,13.40
2023-04-21T09:48:16.514Z,13.40
2023-04-21T09:52:27.337Z,13.50
2023-04-21T09:56:40.233Z,13.80
2023-04-21T10:00:50.180Z,13.90
2023-04-21T10:04:59.685Z,13.90
2023-04-21T10:09:12.418Z,13.80
2023-04-21T10:13:22.068Z,13.80
2023-04-21T10:22:00.566Z,13.80
2023-04-21T10:26:17.894Z,13.90
2023-04-21T10:30:27.556Z,13.90
2023-04-21T10:34:38.798Z,13.90
2023-04-21T10:38:50.567Z,14.00
2023-04-21T10:42:59.170Z,14.10
2023-04-21T10:47:08.947Z,14.20
2023-04-21T10:51:17.893Z,14.50
2023-04-21T10:59:43.547Z,15.10
2023-04-21T11:03:52.945Z,15.10
2023-04-21T11:08:06.677Z,15.10
2023-04-21T11:12:19.165Z,15.20
2023-04-21T11:16:28.063Z,15.20
2023-04-21T11:20:39.944Z,15.40
2023-04-21T11:24:50.863Z,15.50
2023-04-21T11:29:02.216Z,15.70
2023-04-21T11:33:10.898Z,15.70
2023-04-21T11:37:26.042Z,15.60
2023-04-21T11:41:36.216Z,15.50
2023-04-21T11:45:44.931Z,15.30
2023-04-21T11:49:56.361Z,15.20
2023-04-21T11:54:07.552Z,15.20
2023-04-21T11:58:17.986Z,15.30
2023-04-21T12:02:31.590Z,15.40
2023-04-21T12:06:40.416Z,15.60
2023-04-21T12:10:50.277Z,15.80
2023-04-21T12:14:59.175Z,15.90
2023-04-21T12:19:07.878Z,16.00
2023-04-21T12:23:16.612Z,15.90
2023-04-21T12:27:25.235Z,16.00
2023-04-21T12:31:34.122Z,16.20
2023-04-21T12:35:42.907Z,16.50
2023-04-21T12:39:51.640Z,16.70
2023-04-21T12:44:00.375Z,16.90
2023-04-21T12:48:09.057Z,17.10
2023-04-21T12:52:17.832Z,17.30
2023-04-21T12:56:27.082Z,17.50
2023-04-21T13:00:36.457Z,17.30
2023-04-21T13:04:45.423Z,17.30
2023-04-21T13:08:54.090Z,17.20
2023-04-21T13:13:02.720Z,17.10
2023-04-21T13:17:11.781Z,16.90
2023-04-21T13:21:20.434Z,16.80
2023-04-21T13:25:29.220Z,16.70
2023-04-21T13:29:37.780Z,16.60
2023-04-21T13:33:46.488Z,16.60
2023-04-21T13:37:55.338Z,16.70
2023-04-21T13:42:04.006Z,17.00
2023-04-21T13:46:14.522Z,17.10
2023-04-21T13:50:23.488Z,17.00
2023-04-21T13:54:33.144Z,17.20
2023-04-21T13:58:42.870Z,17.30
2023-04-21T14:02:51.769Z,17.30
2023-04-21T14:07:00.753Z,17.20
2023-04-21T14:11:09.460Z,17.60
2023-04-21T14:15:18.190Z,18.00
2023-04-21T14:19:27.022Z,18.40
2023-04-21T14:23:36.324Z,18.50
2023-04-21T14:27:45.053Z,18.30
2023-04-21T14:31:55.755Z,18.30
2023-04-21T14:36:04.713Z,18.20
2023-04-21T14:40:13.472Z,18.10
2023-04-21T14:44:22.199Z,18.10
2023-04-21T14:48:31.215Z,18.20
2023-04-21T14:52:39.951Z,18.00
2023-04-21T14:56:48.569Z,18.00
2023-04-21T15:00:58.135Z,18.00
2023-04-21T15:05:09.018Z,17.80
2023-04-21T15:09:17.770Z,17.70
2023-04-21T15:13:26.676Z,17.50
2023-04-21T15:17:35.340Z,17.40
2023-04-21T15:21:44.327Z,17.30
2023-04-21T15:25:52.952Z,17.20
2023-04-21T15:30:03.167Z,17.10
2023-04-21T15:34:11.864Z,17.10
2023-04-21T15:38:21.277Z,17.10
2023-04-21T15:42:30.061Z,17.10
2023-04-21T15:46:38.794Z,17.10
2023-04-21T15:50:47.781Z,17.00
2023-04-21T15:54:56.607Z,16.90
2023-04-21T15:59:05.543Z,16.90
2023-04-21T16:03:14.298Z,17.00
2023-04-21T16:07:23.695Z,17.10
2023-04-21T16:11:34.052Z,17.10
2023-04-21T16:15:43.805Z,17.30
2023-04-21T16:19:52.601Z,17.40
2023-04-21T16:24:01.373Z,17.50
2023-04-21T16:28:11.476Z,17.50
2023-04-21T16:32:20.449Z,17.50
2023-04-21T16:40:38.863Z,17.40
2023-04-21T16:44:50.776Z,17.30
2023-04-21T16:48:59.493Z,17.20
2023-04-21T16:53:16.577Z,17.10
2023-04-21T16:57:25.388Z,16.90
2023-04-21T17:01:34.486Z,16.80
2023-04-21T17:05:43.392Z,16.70
2023-04-21T17:09:52.091Z,16.70
2023-04-21T17:14:09.546Z,16.40
2023-04-21T17:18:18.353Z,16.20
2023-04-21T17:22:27.084Z,16.00
2023-04-21T17:26:36.226Z,16.00
2023-04-21T17:30:45.076Z,15.90
2023-04-21T17:34:54.096Z,15.70
2023-04-21T17:39:40.253Z,15.50
2023-04-21T17:43:49.141Z,15.50
2023-04-21T17:47:57.832Z,15.40
2023-04-21T17:52:06.687Z,15.30
2023-04-21T17:56:23.737Z,15.20
2023-04-21T18:00:34.215Z,15.10
2023-04-21T18:04:46.444Z,15.00
2023-04-21T18:08:56.008Z,14.90
2023-04-21T18:13:06.030Z,14.80
2023-04-21T18:17:16.009Z,14.80
2023-04-21T18:21:24.821Z,14.70
2023-04-21T18:25:42.010Z,14.60
2023-04-21T18:29:43.730Z,14.50
2023-04-21T18:33:52.927Z,14.40
2023-04-21T18:38:01.711Z,14.30
2023-04-21T18:42:10.526Z,14.30
2023-04-21T18:46:19.199Z,14.30
2023-04-21T18:50:27.993Z,14.10
2023-04-21T18:54:36.866Z,14.10
2023-04-21T18:58:45.862Z,14.00
2023-04-21T19:02:54.694Z,13.90
2023-04-21T19:07:03.643Z,13.80
2023-04-21T19:11:18.243Z,13.60
2023-04-21T19:15:27.350Z,13.50
2023-04-21T19:19:35.982Z,13.40
2023-04-21T19:23:44.699Z,13.50
2023-04-21T19:27:53.325Z,13.50
2023-04-21T19:32:03.080Z,13.50
2023-04-21T19:36:11.826Z,13.40
2023-04-21T19:40:20.871Z,13.40
2023-04-21T19:44:29.582Z,13.40
2023-04-21T19:48:39.434Z,13.40
2023-04-21T19:52:48.438Z,13.40
2023-04-21T19:56:57.033Z,13.40
2023-04-21T20:01:06.099Z,13.30
2023-04-21T20:05:14.737Z,13.10
2023-04-21T20:09:23.514Z,13.10
2023-04-21T20:13:32.348Z,13.00
2023-04-21T20:17:41.911Z,13.00
2023-04-21T20:21:51.038Z,12.90
2023-04-21T20:25:59.777Z,12.80
2023-04-21T20:30:27.676Z,12.80
2023-04-21T20:34:36.296Z,12.80
2023-04-21T20:38:46.587Z,12.70
2023-04-21T20:42:55.378Z,12.60
2023-04-21T20:47:04.440Z,12.60
2023-04-21T20:51:14.471Z,12.40
2023-04-21T20:55:23.143Z,12.40
2023-04-21T20:59:31.806Z,12.50
2023-04-21T21:17:28.019Z,12.50
2023-04-21T21:21:36.718Z,12.40
2023-04-21T21:25:45.678Z,12.30
2023-04-21T21:29:54.310Z,12.20
2023-04-21T21:34:03.918Z,12.30
2023-04-21T21:38:12.559Z,12.20
2023-04-21T21:42:21.191Z,12.10
2023-04-21T21:46:29.885Z,12.10
2023-04-21T21:50:38.757Z,12.10
2023-04-21T21:54:47.480Z,12.00
2023-04-21T21:58:56.220Z,12.00
2023-04-21T22:03:06.572Z,11.90
2023-04-21T22:07:15.934Z,11.90
2023-04-21T22:11:24.670Z,11.80
2023-04-21T22:15:35.284Z,11.70
2023-04-21T22:19:43.563Z,11.60
2023-04-21T22:23:52.149Z,11.60
2023-04-21T22:28:00.719Z,11.50
2023-04-21T22:32:09.717Z,11.40
2023-04-21T22:36:18.191Z,11.40
2023-04-21T22:40:26.767Z,11.40
2023-04-21T22:44:35.702Z,11.30
2023-04-21T22:48:45.894Z,11.30
2023-04-21T22:52:54.461Z,11.30
2023-04-21T22:57:03.440Z,11.20
2023-04-21T23:01:11.993Z,11.10
2023-04-21T23:05:20.574Z,11.00
2023-04-21T23:09:29.059Z,10.90
2023-04-21T23:13:37.809Z,10.80
2023-04-21T23:17:46.316Z,10.70
2023-04-21T23:21:54.931Z,10.60
2023-04-21T23:26:03.400Z,10.70
2023-04-21T23:30:12.657Z,10.60
2023-04-21T23:34:21.204Z,10.60
2023-04-21T23:38:29.701Z,10.60
2023-04-21T23:42:41.271Z,10.60
2023-04-21T23:46:49.833Z,10.40
2023-04-21T23:50:58.362Z,10.20
2023-04-21T23:55:08.068Z,10.30
2023-04-21T23:59:16.623Z,10.30
